createdAt,value
2018-01-13T00:01:54.371Z,0.80
2018-01-13T00:04:21.302Z,1.00
2018-01-13T00:06:48.282Z,1.00
2018-01-13T00:09:14.482Z,1.00
2018-01-13T00:11:40.670Z,1.00
2018-01-13T00:14:06.874Z,1.10
2018-01-13T00:16:33.039Z,1.20
2018-01-13T00:18:59.257Z,1.30
2018-01-13T00:21:25.380Z,1.40
2018-01-13T00:23:51.587Z,1.40
2018-01-13T00:26:17.785Z,1.40
2018-01-13T00:28:44.702Z,1.20
2018-01-13T00:31:10.886Z,1.20
2018-01-13T00:33:37.075Z,1.20
2018-01-13T00:36:03.279Z,1.00
2018-01-13T00:38:29.482Z,1.00
2018-01-13T00:40:55.622Z,0.90
2018-01-13T00:43:21.886Z,0.90
2018-01-13T00:45:48.829Z,0.90
2018-01-13T00:48:15.750Z,0.80
2018-01-13T00:50:48.873Z,0.80
2018-01-13T00:53:15.767Z,0.80
2018-01-13T00:55:41.971Z,0.80
2018-01-13T00:58:08.153Z,0.70
2018-01-13T01:00:34.346Z,0.80
2018-01-13T01:03:00.560Z,0.60
2018-01-13T01:05:26.676Z,0.80
2018-01-13T01:07:52.879Z,0.90
2018-01-13T01:10:19.777Z,0.80
2018-01-13T01:12:45.965Z,0.80
2018-01-13T01:15:12.146Z,0.80
2018-01-13T01:17:38.369Z,0.90
2018-01-13T01:20:04.576Z,0.90
2018-01-13T01:22:30.731Z,0.70
2018-01-13T01:24:57.683Z,0.70
2018-01-13T01:27:23.917Z,0.70
2018-01-13T01:29:50.074Z,0.70
2018-01-13T01:32:17.038Z,0.90
2018-01-13T01:34:43.258Z,0.90
2018-01-13T01:37:09.424Z,1.10
2018-01-13T01:39:35.602Z,1.20
2018-01-13T01:42:01.774Z,1.30
2018-01-13T01:44:28.787Z,1.30
2018-01-13T01:46:55.008Z,1.30
2018-01-13T01:49:21.217Z,1.40
2018-01-13T01:51:48.144Z,1.40
2018-01-13T01:54:14.313Z,1.40
2018-01-13T01:56:40.528Z,1.40
2018-01-13T01:59:06.736Z,1.40
2018-01-13T02:01:33.718Z,1.40
2018-01-13T02:03:59.889Z,1.40
2018-01-13T02:06:26.126Z,1.40
2018-01-13T02:08:52.342Z,1.40
2018-01-13T02:11:18.566Z,1.30
2018-01-13T02:13:44.785Z,1.30
2018-01-13T02:16:11.005Z,1.30
2018-01-13T02:18:37.212Z,1.40
2018-01-13T02:21:03.384Z,1.40
2018-01-13T02:23:29.568Z,1.50
2018-01-13T02:25:55.695Z,1.50
2018-01-13T02:28:21.925Z,1.60
2018-01-13T02:30:48.145Z,1.60
2018-01-13T02:33:14.291Z,1.50
2018-01-13T02:35:40.470Z,1.50
2018-01-13T02:38:06.606Z,1.50
2018-01-13T02:40:33.549Z,1.50
2018-01-13T02:43:00.519Z,1.60
2018-01-13T02:45:26.737Z,1.60
2018-01-13T02:47:52.951Z,1.60
2018-01-13T02:50:19.914Z,1.60
2018-01-13T02:52:46.072Z,1.60
2018-01-13T02:55:12.274Z,1.70
2018-01-13T02:57:38.451Z,1.60
2018-01-13T03:00:04.665Z,1.60
2018-01-13T03:02:30.874Z,1.60
2018-01-13T03:04:57.002Z,1.70
2018-01-13T03:07:23.221Z,1.70
2018-01-13T03:09:49.368Z,1.70
2018-01-13T03:12:15.607Z,1.70
2018-01-13T03:14:41.798Z,1.70
2018-01-13T03:17:07.992Z,1.60
2018-01-13T03:19:34.932Z,1.60
2018-01-13T03:22:01.097Z,1.60
2018-01-13T03:24:27.317Z,1.60
2018-01-13T03:26:53.563Z,1.70
2018-01-13T03:29:19.786Z,1.70
2018-01-13T03:31:46.022Z,1.70
2018-01-13T03:34:12.270Z,1.80
2018-01-13T03:36:38.471Z,1.90
2018-01-13T03:39:04.678Z,1.80
2018-01-13T03:41:31.630Z,1.70
2018-01-13T03:43:57.783Z,1.70
2018-01-13T03:46:23.910Z,1.70
2018-01-13T03:48:50.124Z,1.70
2018-01-13T03:51:16.308Z,1.60
2018-01-13T03:53:42.457Z,1.60
2018-01-13T03:56:09.372Z,1.80
2018-01-13T03:58:35.579Z,1.80
2018-01-13T04:01:01.764Z,1.90
2018-01-13T04:03:28.025Z,1.80
2018-01-13T04:05:54.239Z,1.70
2018-01-13T04:08:20.510Z,1.70
2018-01-13T04:10:46.724Z,1.70
2018-01-13T04:13:12.911Z,1.60
2018-01-13T04:15:39.111Z,1.80
2018-01-13T04:18:06.032Z,1.80
2018-01-13T04:20:32.261Z,1.80
2018-01-13T04:22:58.485Z,1.90
2018-01-13T04:25:24.704Z,1.70
2018-01-13T04:27:50.946Z,1.80
2018-01-13T04:30:17.137Z,1.80
2018-01-13T04:32:43.581Z,1.70
2018-01-13T04:35:09.746Z,1.70
2018-01-13T04:37:35.922Z,1.70
2018-01-13T04:40:02.081Z,1.80
2018-01-13T04:42:28.310Z,1.70
2018-01-13T04:45:00.828Z,1.70
2018-01-13T04:47:30.308Z,1.90
2018-01-13T04:49:56.523Z,1.80
2018-01-13T04:52:22.746Z,1.80
2018-01-13T04:54:49.003Z,1.70
2018-01-13T04:57:16.050Z,1.90
2018-01-13T04:59:42.327Z,1.90
2018-01-13T05:02:08.519Z,1.90
2018-01-13T05:04:35.409Z,1.90
2018-01-13T05:07:02.359Z,1.90
2018-01-13T05:09:28.633Z,1.80
2018-01-13T05:11:55.570Z,1.90
2018-01-13T05:14:22.552Z,1.80
2018-01-13T05:16:48.764Z,1.80
2018-01-13T05:19:14.988Z,1.80
2018-01-13T05:21:41.230Z,1.70
2018-01-13T05:24:07.379Z,1.80
2018-01-13T05:26:33.554Z,2.00
2018-01-13T05:29:00.533Z,1.80
2018-01-13T05:31:26.758Z,1.80
2018-01-13T05:33:52.946Z,1.80
2018-01-13T05:36:19.153Z,1.90
2018-01-13T05:38:45.320Z,2.10
2018-01-13T05:41:12.230Z,2.00
2018-01-13T05:43:38.386Z,2.00
2018-01-13T05:46:05.342Z,1.90
2018-01-13T05:48:31.546Z,1.90
2018-01-13T05:51:02.130Z,2.00
2018-01-13T05:53:28.260Z,2.00
2018-01-13T05:55:54.445Z,2.00
2018-01-13T05:58:21.382Z,2.30
2018-01-13T06:00:48.360Z,2.40
2018-01-13T06:03:14.519Z,2.40
2018-01-13T06:05:40.739Z,2.40
2018-01-13T06:08:06.994Z,2.40
2018-01-13T06:10:33.211Z,2.20
2018-01-13T06:12:59.405Z,2.20
2018-01-13T06:15:25.618Z,2.10
2018-01-13T06:17:51.774Z,2.00
2018-01-13T06:20:18.266Z,2.10
2018-01-13T06:22:45.168Z,2.00
2018-01-13T06:25:11.713Z,2.00
2018-01-13T06:27:38.199Z,2.10
2018-01-13T06:30:04.403Z,2.10
2018-01-13T06:32:31.362Z,2.10
2018-01-13T06:34:57.891Z,2.10
2018-01-13T06:37:24.154Z,2.00
2018-01-13T06:39:50.367Z,2.00
2018-01-13T06:42:16.533Z,2.00
2018-01-13T06:44:42.714Z,2.00
2018-01-13T06:47:08.947Z,2.10
2018-01-13T06:49:35.123Z,2.10
2018-01-13T06:52:01.343Z,2.10
2018-01-13T06:54:27.564Z,2.20
2018-01-13T06:56:53.829Z,2.20
2018-01-13T06:59:20.803Z,2.10
2018-01-13T07:01:47.024Z,2.10
2018-01-13T07:04:13.919Z,2.30
2018-01-13T07:06:40.181Z,2.30
2018-01-13T07:09:07.156Z,2.50
2018-01-13T07:11:33.376Z,2.50
2018-01-13T07:13:59.621Z,2.50
2018-01-13T07:16:25.828Z,2.60
2018-01-13T07:18:52.809Z,2.40
2018-01-13T07:21:19.780Z,2.30
2018-01-13T07:26:18.827Z,2.30
2018-01-13T07:28:44.960Z,2.30
2018-01-13T07:31:11.922Z,2.30
2018-01-13T07:33:38.139Z,2.30
2018-01-13T07:36:04.352Z,2.30
2018-01-13T07:38:31.317Z,2.30
2018-01-13T07:40:57.476Z,2.30
2018-01-13T07:43:23.728Z,2.30
2018-01-13T07:45:49.942Z,2.30
2018-01-13T07:48:16.133Z,2.30
2018-01-13T07:50:42.324Z,2.50
2018-01-13T07:53:08.478Z,2.40
2018-01-13T07:55:34.674Z,2.30
2018-01-13T07:58:01.597Z,2.50
2018-01-13T08:00:27.838Z,2.50
2018-01-13T08:02:54.031Z,2.50
2018-01-13T08:05:20.238Z,2.60
2018-01-13T08:07:46.514Z,2.70
2018-01-13T08:10:12.697Z,2.60
2018-01-13T08:12:38.940Z,2.60
2018-01-13T08:15:05.135Z,2.60
2018-01-13T08:17:32.089Z,2.60
2018-01-13T08:19:58.287Z,2.60
2018-01-13T08:22:25.227Z,2.70
2018-01-13T08:24:51.463Z,2.70
2018-01-13T08:27:18.388Z,2.70
2018-01-13T08:29:44.594Z,2.60
2018-01-13T08:32:10.856Z,2.70
2018-01-13T08:34:37.066Z,2.60
2018-01-13T08:37:03.317Z,2.70
2018-01-13T08:39:29.547Z,2.60
2018-01-13T08:41:56.496Z,2.60
2018-01-13T08:44:22.649Z,2.60
2018-01-13T08:46:48.840Z,2.70
2018-01-13T08:49:15.034Z,2.70
2018-01-13T08:51:41.295Z,2.80
2018-01-13T08:54:07.545Z,2.90
2018-01-13T08:56:34.497Z,3.00
2018-01-13T08:59:01.459Z,2.90
2018-01-13T09:01:28.629Z,2.90
2018-01-13T09:03:54.862Z,3.00
2018-01-13T09:06:21.082Z,3.10
2018-01-13T09:08:47.318Z,3.20
2018-01-13T09:11:13.538Z,3.20
2018-01-13T09:13:39.707Z,3.30
2018-01-13T09:16:05.925Z,3.30
2018-01-13T09:18:32.089Z,3.40
2018-01-13T09:20:58.973Z,3.40
2018-01-13T09:23:25.280Z,3.40
2018-01-13T09:25:51.504Z,3.50
2018-01-13T09:28:17.707Z,3.60
2018-01-13T09:30:44.660Z,3.70
2018-01-13T09:33:11.606Z,3.70
2018-01-13T09:35:38.517Z,3.80
2018-01-13T09:38:04.676Z,3.80
2018-01-13T09:40:31.639Z,3.80
2018-01-13T09:42:57.833Z,3.80
2018-01-13T09:45:24.759Z,3.90
2018-01-13T09:47:50.938Z,3.90
2018-01-13T09:50:17.126Z,3.90
2018-01-13T09:52:43.362Z,4.00
2018-01-13T09:55:10.327Z,4.10
2018-01-13T09:57:36.563Z,4.00
2018-01-13T10:00:02.860Z,4.10
2018-01-13T10:02:29.039Z,4.10
2018-01-13T10:04:55.171Z,4.10
2018-01-13T10:07:21.330Z,4.10
2018-01-13T10:09:47.534Z,4.10
2018-01-13T10:12:13.735Z,4.20
2018-01-13T10:14:39.945Z,4.20
2018-01-13T10:17:06.901Z,4.30
2018-01-13T10:19:33.114Z,4.20
2018-01-13T10:22:00.083Z,4.20
2018-01-13T10:24:26.255Z,4.20
2018-01-13T10:26:52.494Z,4.20
2018-01-13T10:29:18.701Z,4.20
2018-01-13T10:31:44.902Z,4.20
2018-01-13T10:34:11.129Z,4.30
2018-01-13T10:36:37.342Z,4.20
2018-01-13T10:39:03.590Z,4.30
2018-01-13T10:41:29.775Z,4.20
2018-01-13T10:43:56.750Z,4.30
2018-01-13T10:46:22.979Z,4.20
2018-01-13T10:48:49.206Z,4.20
2018-01-13T10:51:15.374Z,4.30
2018-01-13T10:53:41.595Z,4.30
2018-01-13T10:56:07.827Z,4.30
2018-01-13T10:58:34.012Z,4.20
2018-01-13T11:01:00.254Z,4.30
2018-01-13T11:03:26.426Z,4.20
2018-01-13T11:05:52.643Z,4.30
2018-01-13T11:08:18.958Z,4.30
2018-01-13T11:10:45.108Z,4.30
2018-01-13T11:13:11.337Z,4.20
2018-01-13T11:15:37.505Z,4.30
2018-01-13T11:18:03.752Z,4.30
2018-01-13T11:20:29.992Z,4.20
2018-01-13T11:22:56.191Z,4.20
2018-01-13T11:25:22.346Z,4.20
2018-01-13T11:27:48.499Z,4.20
2018-01-13T11:30:14.684Z,4.20
2018-01-13T11:32:40.846Z,4.20
2018-01-13T11:35:07.025Z,4.20
2018-01-13T11:37:33.974Z,4.30
2018-01-13T11:40:00.136Z,4.30
2018-01-13T11:42:26.343Z,4.30
2018-01-13T11:44:52.518Z,4.30
2018-01-13T11:47:19.500Z,4.30
2018-01-13T11:49:45.713Z,4.20
2018-01-13T11:52:12.711Z,4.20
2018-01-13T11:54:38.908Z,4.20
2018-01-13T11:57:05.121Z,4.30
2018-01-13T11:59:32.119Z,4.20
2018-01-13T12:01:58.339Z,4.20
2018-01-13T12:04:24.568Z,4.20
2018-01-13T12:06:51.940Z,4.20
2018-01-13T12:09:18.156Z,4.20
2018-01-13T12:11:44.338Z,4.20
2018-01-13T12:14:11.452Z,4.20
2018-01-13T12:16:37.648Z,4.20
2018-01-13T12:19:03.910Z,4.30
2018-01-13T12:21:30.123Z,4.30
2018-01-13T12:23:56.340Z,4.30
2018-01-13T12:26:22.523Z,4.30
2018-01-13T12:28:49.490Z,4.20
2018-01-13T12:31:15.710Z,4.20
2018-01-13T12:33:41.957Z,4.20
2018-01-13T12:36:08.140Z,4.20
2018-01-13T12:38:34.398Z,4.10
2018-01-13T12:41:00.594Z,4.20
2018-01-13T12:43:26.719Z,4.20
2018-01-13T12:45:52.902Z,4.20
2018-01-13T12:48:19.114Z,4.20
2018-01-13T12:50:45.398Z,4.20
2018-01-13T12:53:11.614Z,4.20
2018-01-13T12:55:37.774Z,4.20
2018-01-13T12:58:04.749Z,4.20
2018-01-13T13:00:30.937Z,4.20
2018-01-13T13:02:57.902Z,4.10
2018-01-13T13:05:24.114Z,4.10
2018-01-13T13:07:51.270Z,4.20
2018-01-13T13:10:18.280Z,4.10
2018-01-13T13:12:44.504Z,4.10
2018-01-13T13:15:10.685Z,4.10
2018-01-13T13:17:36.876Z,4.10
2018-01-13T13:20:03.139Z,4.10
2018-01-13T13:22:29.377Z,4.20
2018-01-13T13:24:55.591Z,4.20
2018-01-13T13:27:21.813Z,4.20
2018-01-13T13:29:55.780Z,4.30
2018-01-13T13:32:21.936Z,4.20
2018-01-13T13:34:48.182Z,4.20
2018-01-13T13:37:15.170Z,4.30
2018-01-13T13:39:41.390Z,4.30
2018-01-13T13:42:07.602Z,4.30
2018-01-13T13:44:33.777Z,4.20
2018-01-13T13:46:59.946Z,4.30
2018-01-13T13:49:26.825Z,4.20
2018-01-13T13:51:53.071Z,4.20
2018-01-13T13:54:19.316Z,4.20
2018-01-13T13:56:45.556Z,4.20
2018-01-13T13:59:12.431Z,4.20
2018-01-13T14:01:38.701Z,4.20
2018-01-13T14:04:05.160Z,4.20
2018-01-13T14:06:31.353Z,4.20
2018-01-13T14:08:57.532Z,4.20
2018-01-13T14:11:24.513Z,4.20
2018-01-13T14:13:50.784Z,4.20
2018-01-13T14:16:17.736Z,4.20
2018-01-13T14:18:44.692Z,4.20
2018-01-13T14:21:11.617Z,4.20
2018-01-13T14:23:37.786Z,4.20
2018-01-13T14:26:04.043Z,4.20
2018-01-13T14:28:30.273Z,4.20
2018-01-13T14:30:56.459Z,4.10
2018-01-13T14:33:22.718Z,4.10
2018-01-13T14:35:48.983Z,4.10
2018-01-13T14:38:15.171Z,4.10
2018-01-13T14:40:41.320Z,4.10
2018-01-13T14:43:07.502Z,4.10
2018-01-13T14:45:33.680Z,4.10
2018-01-13T14:47:59.862Z,4.10
2018-01-13T14:50:26.111Z,4.20
2018-01-13T14:52:52.324Z,4.10
2018-01-13T14:55:18.520Z,4.10
2018-01-13T14:57:45.480Z,4.10
2018-01-13T15:00:12.417Z,4.00
2018-01-13T15:02:39.392Z,3.90
2018-01-13T15:05:05.652Z,3.90
2018-01-13T15:07:31.879Z,3.90
2018-01-13T15:09:58.034Z,3.90
2018-01-13T15:12:24.227Z,3.90
2018-01-13T15:14:50.379Z,3.90
2018-01-13T15:17:16.589Z,3.90
2018-01-13T15:19:42.806Z,3.90
2018-01-13T15:22:08.952Z,3.80
2018-01-13T15:24:35.869Z,3.80
2018-01-13T15:27:02.115Z,3.80
2018-01-13T15:29:28.306Z,3.80
2018-01-13T15:31:54.509Z,3.80
2018-01-13T15:34:21.430Z,3.90
2018-01-13T15:36:47.573Z,3.80
2018-01-13T15:39:14.545Z,3.80
2018-01-13T15:41:40.784Z,3.80
2018-01-13T15:44:06.941Z,3.70
2018-01-13T15:46:33.083Z,3.70
2018-01-13T15:48:59.335Z,3.70
2018-01-13T15:51:26.231Z,3.70
2018-01-13T15:53:52.450Z,3.70
2018-01-13T15:56:18.670Z,3.70
2018-01-13T15:58:44.841Z,3.60
2018-01-13T16:01:11.839Z,3.50
2018-01-13T16:03:37.997Z,3.50
2018-01-13T16:06:04.259Z,3.60
2018-01-13T16:08:31.204Z,3.60
2018-01-13T16:10:58.147Z,3.50
2018-01-13T16:13:25.057Z,3.50
2018-01-13T16:15:51.278Z,3.50
2018-01-13T16:18:17.461Z,3.40
2018-01-13T16:20:44.391Z,3.50
2018-01-13T16:23:10.598Z,3.50
2018-01-13T16:25:36.770Z,3.40
2018-01-13T16:28:03.704Z,3.40
2018-01-13T16:30:30.615Z,3.40
2018-01-13T16:32:56.821Z,3.40
2018-01-13T16:35:24.197Z,3.50
2018-01-13T16:37:50.369Z,3.40
2018-01-13T16:40:16.585Z,3.40
2018-01-13T16:42:43.553Z,3.40
2018-01-13T16:45:09.771Z,3.40
2018-01-13T16:47:35.915Z,3.30
2018-01-13T16:50:02.828Z,3.30
2018-01-13T16:52:29.767Z,3.30
2018-01-13T16:54:56.704Z,3.20
2018-01-13T16:57:23.625Z,3.30
2018-01-13T16:59:49.828Z,3.30
2018-01-13T17:02:16.033Z,3.30
2018-01-13T17:04:42.182Z,3.30
2018-01-13T17:07:08.559Z,3.30
2018-01-13T17:09:34.743Z,3.20
2018-01-13T17:12:00.937Z,3.20
2018-01-13T17:14:27.865Z,3.20
2018-01-13T17:16:54.766Z,3.20
2018-01-13T17:19:20.928Z,3.20
2018-01-13T17:21:47.860Z,3.10
2018-01-13T17:24:14.047Z,3.10
2018-01-13T17:26:40.208Z,3.00
2018-01-13T17:29:06.534Z,3.00
2018-01-13T17:31:32.763Z,3.00
2018-01-13T17:33:58.991Z,3.00
2018-01-13T17:36:25.126Z,3.00
2018-01-13T17:38:51.348Z,3.00
2018-01-13T17:41:17.604Z,3.10
2018-01-13T17:43:44.546Z,2.90
2018-01-13T17:46:11.467Z,2.90
2018-01-13T17:48:37.624Z,2.90
2018-01-13T17:51:04.599Z,2.80
2018-01-13T17:53:30.805Z,2.80
2018-01-13T17:55:57.736Z,2.70
2018-01-13T17:58:23.949Z,2.70
2018-01-13T18:00:50.147Z,2.80
2018-01-13T18:03:16.335Z,2.70
2018-01-13T18:05:43.207Z,2.80
2018-01-13T18:08:09.388Z,2.80
2018-01-13T18:10:36.328Z,2.70
2018-01-13T18:13:02.517Z,2.70
2018-01-13T18:15:28.701Z,2.80
2018-01-13T18:17:55.619Z,2.80
2018-01-13T18:20:21.764Z,2.80
2018-01-13T18:22:47.998Z,2.80
2018-01-13T18:25:15.021Z,2.80
2018-01-13T18:27:41.287Z,2.80
2018-01-13T18:30:07.544Z,2.80
2018-01-13T18:32:33.670Z,2.70
2018-01-13T18:34:59.881Z,2.60
2018-01-13T18:37:26.072Z,2.50
2018-01-13T18:39:52.244Z,2.50
2018-01-13T18:42:18.453Z,2.50
2018-01-13T18:44:44.699Z,2.50
2018-01-13T18:47:10.847Z,2.50
2018-01-13T18:49:36.998Z,2.50
2018-01-13T18:52:03.202Z,2.50
2018-01-13T18:54:29.473Z,2.40
2018-01-13T18:56:56.404Z,2.50
2018-01-13T18:59:23.406Z,2.40
2018-01-13T19:01:49.640Z,2.40
2018-01-13T19:04:15.831Z,2.40
2018-01-13T19:06:42.793Z,2.30
2018-01-13T19:09:08.974Z,2.30
2018-01-13T19:11:35.133Z,2.30
2018-01-13T19:14:02.035Z,2.30
2018-01-13T19:16:28.274Z,2.20
2018-01-13T19:18:54.468Z,2.20
2018-01-13T19:21:20.620Z,2.30
2018-01-13T19:23:46.783Z,2.30
2018-01-13T19:26:13.689Z,2.20
2018-01-13T19:28:39.882Z,2.20
2018-01-13T19:31:06.057Z,2.30
2018-01-13T19:33:32.306Z,2.30
2018-01-13T19:35:59.243Z,2.30
2018-01-13T19:38:26.195Z,2.30
2018-01-13T19:40:53.106Z,2.30
2018-01-13T19:43:19.299Z,2.30
2018-01-13T19:45:45.574Z,2.40
2018-01-13T19:48:11.801Z,2.40
2018-01-13T19:50:37.982Z,2.40
2018-01-13T19:53:04.173Z,2.30
2018-01-13T19:55:31.072Z,2.20
2018-01-13T19:57:57.209Z,2.20
2018-01-13T20:00:23.434Z,2.20
2018-01-13T20:02:49.600Z,2.20
2018-01-13T20:05:16.591Z,2.20
2018-01-13T20:07:42.790Z,2.10
2018-01-13T20:10:09.756Z,2.20
2018-01-13T20:12:35.966Z,2.20
2018-01-13T20:15:02.142Z,2.30
2018-01-13T20:17:28.272Z,2.30
2018-01-13T20:19:54.454Z,2.30
2018-01-13T20:22:20.646Z,2.20
2018-01-13T20:24:47.620Z,2.00
2018-01-13T20:27:14.786Z,1.90
2018-01-13T20:29:41.000Z,1.90
2018-01-13T20:32:07.992Z,1.80
2018-01-13T20:34:34.165Z,1.80
2018-01-13T20:37:01.119Z,1.70
2018-01-13T20:39:27.384Z,1.70
2018-01-13T20:41:53.604Z,1.80
2018-01-13T20:44:19.829Z,1.80
2018-01-13T20:46:46.027Z,1.80
2018-01-13T20:49:12.941Z,1.70
2018-01-13T20:51:39.184Z,1.70
2018-01-13T20:54:06.117Z,1.70
2018-01-13T20:56:32.264Z,1.60
2018-01-13T20:58:59.209Z,1.60
2018-01-13T21:01:26.210Z,1.60
2018-01-13T21:03:52.373Z,1.60
2018-01-13T21:06:18.651Z,1.50
2018-01-13T21:08:44.822Z,1.50
2018-01-13T21:11:11.732Z,1.60
2018-01-13T21:13:37.924Z,1.60
2018-01-13T21:16:04.920Z,1.50
2018-01-13T21:18:31.086Z,1.50
2018-01-13T21:20:57.998Z,1.50
2018-01-13T21:23:24.211Z,1.40
2018-01-13T21:25:50.335Z,1.50
2018-01-13T21:28:16.548Z,1.40
2018-01-13T21:30:42.793Z,1.40
2018-01-13T21:33:09.004Z,1.40
2018-01-13T21:35:35.247Z,1.40
2018-01-13T21:38:01.482Z,1.40
2018-01-13T21:40:27.683Z,1.40
2018-01-13T21:42:53.868Z,1.30
2018-01-13T21:45:20.837Z,1.50
2018-01-13T21:47:47.081Z,1.50
2018-01-13T21:50:13.308Z,1.50
2018-01-13T21:52:39.519Z,1.50
2018-01-13T21:55:05.742Z,1.40
2018-01-13T21:57:32.655Z,1.20
2018-01-13T21:59:58.898Z,1.20
2018-01-13T22:02:25.097Z,1.30
2018-01-13T22:04:51.385Z,1.30
2018-01-13T22:07:17.568Z,1.30
2018-01-13T22:09:43.786Z,1.40
2018-01-13T22:12:10.013Z,1.30
2018-01-13T22:14:36.172Z,1.30
2018-01-13T22:17:03.093Z,1.30
2018-01-13T22:19:29.277Z,1.30
2018-01-13T22:21:55.511Z,1.40
2018-01-13T22:24:21.771Z,1.40
2018-01-13T22:26:47.972Z,1.30
2018-01-13T22:29:14.151Z,1.30
2018-01-13T22:31:41.072Z,1.30
2018-01-13T22:34:07.278Z,1.40
2018-01-13T22:36:33.465Z,1.30
2018-01-13T22:39:00.364Z,1.20
2018-01-13T22:41:26.533Z,1.10
2018-01-13T22:43:53.495Z,1.30
2018-01-13T22:46:19.683Z,1.20
2018-01-13T22:48:45.873Z,1.20
2018-01-13T22:51:12.010Z,1.10
2018-01-13T22:53:38.162Z,1.20
2018-01-13T22:56:04.351Z,1.20
2018-01-13T22:58:30.555Z,1.30
2018-01-13T23:00:56.826Z,1.30
2018-01-13T23:03:22.989Z,1.20
2018-01-13T23:05:49.912Z,1.20
2018-01-13T23:08:16.087Z,1.20
2018-01-13T23:10:42.979Z,1.30
2018-01-13T23:13:09.176Z,1.30
2018-01-13T23:15:36.954Z,1.30
2018-01-13T23:18:04.086Z,1.40
2018-01-13T23:20:30.294Z,1.30
2018-01-13T23:22:57.262Z,1.40
2018-01-13T23:25:23.463Z,1.40
2018-01-13T23:27:50.393Z,1.30
2018-01-13T23:30:17.377Z,1.40
2018-01-13T23:32:43.594Z,1.30
2018-01-13T23:35:09.856Z,1.30
2018-01-13T23:37:36.057Z,1.40
2018-01-13T23:40:02.266Z,1.40
2018-01-13T23:42:29.171Z,1.40
2018-01-13T23:44:55.311Z,1.40
2018-01-13T23:47:21.542Z,1.40
2018-01-13T23:49:47.766Z,1.40
2018-01-13T23:52:14.792Z,1.50
2018-01-13T23:54:40.933Z,1.40
2018-01-13T23:57:07.098Z,1.50
2018-01-13T23:59:34.118Z,1.40
